Airfield :
LOGIN :

Register | Disclaimer

   EN    FR    IT 

 










Legend :    VFR   Marginal VFR   IFR   Intensive IFR   Very Intensive IFR
Visi :
Ceiling :
>= 8 km
>= 3000ft
5 to 8 km
1000 to 3000 ft
1500m to 5 km
500 to 1000 ft
800 to 1500m
200 to 500 ft
< 800m
< 200 ft
Symbols :   Thunderstorms  Fog  Heavy snow  Heavy precipitations  Wind > 20 kt
SIGMETs :     Misc.  Thunderstorms  Icing  Turbulence  Mountain Waves  Volcanic Ashes






- Airport Elevation : 1197 ft
- IATA code : SPM


ETAD - Spangdahlem Ab

CURRENT METAR :
  • 291155Z 18008KT 9999 FEW180 09/00 A2988 RMK AO2A SLP117 T00920004 10092 20008 57023 $

EXPIRED METARs :
  • 291055Z 17006KT 9999 FEW150 07/02 A2991 RMK AO2A SLP127 T00740017 $
  • 290955Z 20004KT 9999 FEW010 05/01 A2993 RMK AO2A SLP135 T00470008 $
  • 290925Z 00000KT 9999 SCT006 04/01 A2994 RMK AO2A SLP140 $
  • 290910Z 17004KT 9999 BKN006 03/01 A2994 RMK AO2A CIG 005 RWY04 SLP140 $
  • 290855Z 00000KT 9000 BR OVC004 02/01 A2995 RMK AO2A CIG 003 RWY04 SLP143 T00210005 57012 $
  • 290825Z 20005KT 4400 BR OVC003 02/01 A2996 RMK AO2A CIG 002 RWY04 SLP146 $
  • 290810Z 21005KT 4400 BR OVC003 02/01 A2996 RMK AO2A VIS 3600V4400 CIG 002 RWY04 SLP146 $
  • 290755Z 24005KT 3600 BR OVC003 01/01 A2996 RMK AO2A CIG 002 RWY04 SLP146 T00140005 $

TAF AMD TAF ETAD
Valid from the 29 at 09:00 until the 01 at 11:00 UTC


290900Z 2909/0111 VRB06KT 9000 BR OVC005 QNH2995INS
BECMG 2909/2910 19010G15KT 9999 NSW FEW150 QNH2998INS
BECMG 2922/2923 19006KT 9999 BKN015 QNH2964INS
BECMG 0101/0102 19009KT 8000 -SHRA BKN003 QNH2963INS TX10/2914Z TN03/2909Z



MET'MAP, your aeronautical weather chart ! - Copyright ORBIFLY December 2007 - Disclaimer

ORBIFLY MET'MAP TEAM :

Programming & Development : Alexandra Zaïnal
Original concept : Baudouin d'Aumeries
Technical & hardware support : Manuel Goepfert
Assistance : Marc-Olivier Méhu




SOURCES & CREDITS :

   NOAA